Torrance, CA

10:44 PM PDT on August 03, 2015 (GMT -0700)
Zamperini | | Change Station
CLOSE
Current Station
Airport
Location: Torrance,
Elevation: 102 ft
Nearby Weather Stations

Elev 102 ft 33.80 °N, 118.34 °W | Updated 2 hours ago

Scattered Clouds
Scattered Clouds
73 °F
Feels Like 73 °F
N
14
Wind Variable Wind from WNW

Today
High -- | Low -- °F
--% Chance of Precip.
Yesterday
High -- | Low -- °F
Precip. -- in
6:06 AM 7:52 PM
Waning Gibbous, 81% visible
Pressure 29.87 in
Visibility 10.0 miles
Clouds Scattered Clouds 20000 ft
Dew Point 64 °F
Humidity 73%
Rainfall 0.00 in
Snow Depth Not available.
UV 0 out of 12
Pollen 4.20 out of 12
Air Quality Not available.
Flu Activity Not available.
METAR KTOA 040250Z 30012KT 10SM SCT200 23/18 A2987 RMK LAST

More Conditions Fewer Conditions

Pressure 29.87 in
Visibility 10.0 miles
Clouds Scattered Clouds 20000 ft
Dew Point 64 °F
Humidity 73%
Rainfall 0.00 in
Snow Depth Not available.
UV 0 out of 12
Pollen 4.20 out of 12
Air Quality Not available.
Flu Activity Not available.
METAR KTOA 040250Z 30012KT 10SM SCT200 23/18 A2987 RMK LAST

More Conditions Fewer Conditions

10-Day Weather Forecast

×

Almanac

Astronomy

Aug. 03, 2015 Rise Set
Actual Time
Civil Twilight
Nautical Twilight
Astronomical Twilight
Moon
Length of Visible Light
Length of Day
Tomorrow will be .
, % of the Moon is Illuminated

Today's Extremes

State Highs State Lows

Community

WunderPhotos

Upload Photos

1,843,870 photos uploaded!

WunderBlogs® & News

Nearby

Air Quality

  Air Quality AQ Index Pollutant
Not available.

Snow Depth

Station Depth Elevation

Earthquake Activity

City Distance Mag. Time & Date
Minimum magnitude displayed is 2.5.

Coastal Water Temperatures

Place Temperature

Stations

Nearby Weather Stations

Station Location Temp. Windchill Dew Point Humidity Wind Precip. Elev Updated Type